Schedule Details


Flight Number: CTN4405
Departure: Frankfurt/main (EDDF) at 10:25
Arrival: Pula (LDPL) at 11:55
Route: NOMBO UZ738 MUN UM867 VAROB DCT VEKEN Y66 KANIN DCT GIRDA

Weather Information
EDDF 162350Z 04004KT CAVOK 08/05 Q1021 NOSIG
LDPL 170000Z 05007KT CAVOK 12/06 Q1018
Schedule Frequency

Route Map